createdAt,value
2018-03-16T00:02:28.547Z,42.30
2018-03-16T00:04:58.258Z,42.80
2018-03-16T00:07:27.118Z,41.70
2018-03-16T00:09:56.729Z,41.20
2018-03-16T00:12:26.373Z,44.67
2018-03-16T00:14:55.745Z,42.90
2018-03-16T00:17:24.591Z,42.77
2018-03-16T00:19:53.450Z,46.33
2018-03-16T00:22:34.303Z,42.87
2018-03-16T00:25:03.193Z,44.87
2018-03-16T00:27:32.025Z,46.87
2018-03-16T00:30:01.635Z,44.30
2018-03-16T00:32:30.423Z,43.40
2018-03-16T00:34:59.570Z,43.83
2018-03-16T00:37:28.462Z,42.57
2018-03-16T00:39:57.319Z,41.53
2018-03-16T00:42:26.923Z,39.60
2018-03-16T00:44:56.561Z,40.73
2018-03-16T00:47:25.415Z,44.33
2018-03-16T00:49:55.053Z,42.37
2018-03-16T00:52:23.906Z,41.17
2018-03-16T00:54:53.516Z,43.60
2018-03-16T00:57:22.346Z,43.37
2018-03-16T00:59:51.197Z,44.77
2018-03-16T01:02:20.374Z,43.00
2018-03-16T01:04:49.558Z,45.07
2018-03-16T01:07:18.430Z,43.33
2018-03-16T01:09:47.377Z,43.40
2018-03-16T01:12:16.981Z,44.10
2018-03-16T01:14:46.593Z,41.53
2018-03-16T01:17:15.449Z,40.80
2018-03-16T01:19:44.310Z,44.00
2018-03-16T01:22:13.179Z,40.90
2018-03-16T01:24:42.806Z,43.47
2018-03-16T01:27:11.649Z,44.27
2018-03-16T01:29:40.513Z,43.63
2018-03-16T01:32:09.366Z,43.33
2018-03-16T01:34:38.981Z,41.60
2018-03-16T01:37:07.826Z,42.67
2018-03-16T01:39:36.674Z,43.27
2018-03-16T01:42:05.499Z,43.83
2018-03-16T01:44:34.345Z,42.97
2018-03-16T01:47:03.178Z,39.80
2018-03-16T01:49:32.029Z,44.00
2018-03-16T01:52:00.859Z,42.50
2018-03-16T01:54:29.700Z,42.00
2018-03-16T01:56:58.542Z,44.13
2018-03-16T01:59:27.429Z,42.70
2018-03-16T02:01:56.275Z,44.23
2018-03-16T02:04:25.136Z,39.90
2018-03-16T02:06:54.743Z,44.20
2018-03-16T02:09:24.014Z,42.93
2018-03-16T02:11:52.882Z,44.93
2018-03-16T02:14:21.728Z,44.10
2018-03-16T02:16:51.321Z,45.33
2018-03-16T02:19:20.184Z,42.70
2018-03-16T02:21:49.786Z,45.93
2018-03-16T02:24:19.418Z,43.20
2018-03-16T02:26:48.254Z,44.60
2018-03-16T02:29:18.126Z,45.47
2018-03-16T02:31:46.969Z,46.13
2018-03-16T02:34:15.797Z,46.27
2018-03-16T02:36:44.633Z,43.83
2018-03-16T02:39:13.477Z,45.37
2018-03-16T02:41:42.318Z,45.73
2018-03-16T02:44:11.158Z,44.70
2018-03-16T02:46:40.352Z,46.00
2018-03-16T02:49:09.945Z,44.67
2018-03-16T02:51:38.792Z,46.93
2018-03-16T02:54:07.737Z,46.43
2018-03-16T02:56:36.552Z,48.20
2018-03-16T02:59:05.411Z,47.93
2018-03-16T03:01:34.260Z,44.97
2018-03-16T03:04:03.098Z,48.40
2018-03-16T03:06:31.957Z,47.33
2018-03-16T03:09:01.571Z,47.83
2018-03-16T03:11:31.199Z,46.13
2018-03-16T03:14:00.819Z,48.57
2018-03-16T03:16:29.646Z,49.27
2018-03-16T03:18:59.250Z,46.03
2018-03-16T03:21:28.850Z,49.17
2018-03-16T03:23:58.474Z,49.40
2018-03-16T03:26:28.073Z,47.57
2018-03-16T03:28:57.701Z,48.90
2018-03-16T03:31:26.530Z,50.77
2018-03-16T03:33:55.904Z,48.47
2018-03-16T03:36:24.762Z,47.43
2018-03-16T03:38:54.395Z,46.97
2018-03-16T03:41:23.234Z,48.50
2018-03-16T03:43:52.080Z,47.10
2018-03-16T03:46:20.926Z,48.30
2018-03-16T03:48:49.755Z,48.13
2018-03-16T03:51:18.638Z,52.93
2018-03-16T03:53:47.496Z,48.60
2018-03-16T03:56:17.102Z,52.20
2018-03-16T03:58:46.708Z,50.70
2018-03-16T04:01:16.335Z,50.87
2018-03-16T04:03:45.962Z,50.13
2018-03-16T04:06:14.795Z,49.03
2018-03-16T04:08:43.609Z,48.80
2018-03-16T04:11:13.234Z,47.83
2018-03-16T04:13:43.036Z,51.47
2018-03-16T04:16:11.993Z,52.30
2018-03-16T04:18:42.174Z,51.80
2018-03-16T04:21:11.873Z,50.33
2018-03-16T04:23:41.473Z,51.37
2018-03-16T04:26:11.074Z,51.50
2018-03-16T04:28:40.692Z,50.37
2018-03-16T04:31:10.708Z,48.73
2018-03-16T04:33:40.314Z,50.30
2018-03-16T04:36:10.739Z,50.23
2018-03-16T04:38:40.348Z,52.10
2018-03-16T04:41:10.890Z,50.10
2018-03-16T04:43:39.733Z,51.27
2018-03-16T04:46:08.589Z,53.30
2018-03-16T04:48:37.477Z,49.83
2018-03-16T04:51:06.320Z,50.23
2018-03-16T04:53:35.133Z,50.37
2018-03-16T04:56:03.990Z,51.27
2018-03-16T04:58:32.842Z,49.20
2018-03-16T05:01:01.698Z,48.63
2018-03-16T05:03:31.302Z,47.20
2018-03-16T05:06:00.917Z,49.20
2018-03-16T05:08:29.778Z,45.70
2018-03-16T05:10:58.622Z,46.27
2018-03-16T05:13:27.466Z,48.50
2018-03-16T05:15:57.080Z,47.40
2018-03-16T05:18:25.908Z,44.30
2018-03-16T05:20:54.767Z,42.43
2018-03-16T05:23:24.455Z,43.00
2018-03-16T05:25:54.086Z,40.90
2018-03-16T05:28:22.942Z,41.57
2018-03-16T05:30:51.781Z,41.50
2018-03-16T05:33:20.605Z,41.77
2018-03-16T05:35:49.468Z,42.10
2018-03-16T05:38:18.298Z,40.80
2018-03-16T05:40:47.922Z,39.20
2018-03-16T05:45:52.797Z,36.60
2018-03-16T05:48:21.627Z,34.20
2018-03-16T05:50:50.775Z,36.70
2018-03-16T05:53:19.608Z,34.60
2018-03-16T05:55:48.453Z,34.33
2018-03-16T05:58:17.309Z,32.67
2018-03-16T06:00:46.943Z,33.20
2018-03-16T06:03:16.556Z,33.20
2018-03-16T06:05:45.395Z,33.10
2018-03-16T06:08:14.284Z,31.80
2018-03-16T06:10:43.109Z,33.07
2018-03-16T06:13:11.969Z,31.37
2018-03-16T06:15:40.810Z,30.23
2018-03-16T06:18:09.674Z,30.73
2018-03-16T06:20:39.282Z,31.13
2018-03-16T06:23:08.923Z,30.63
2018-03-16T06:25:37.769Z,30.87
2018-03-16T06:28:06.694Z,30.23
2018-03-16T06:30:35.518Z,32.00
2018-03-16T06:33:04.385Z,31.80
2018-03-16T06:35:33.245Z,29.47
2018-03-16T06:38:02.853Z,31.00
2018-03-16T06:40:32.480Z,29.80
2018-03-16T06:43:01.343Z,31.00
2018-03-16T06:45:30.322Z,30.20
2018-03-16T06:48:00.358Z,29.67
2018-03-16T06:50:29.989Z,26.90
2018-03-16T06:53:02.053Z,28.20
2018-03-16T06:55:30.902Z,28.67
2018-03-16T06:58:00.501Z,26.70
2018-03-16T07:00:30.084Z,27.10
2018-03-16T07:02:58.946Z,27.30
2018-03-16T07:05:27.800Z,28.23
2018-03-16T07:07:57.402Z,28.20
2018-03-16T07:10:27.026Z,27.27
2018-03-16T07:12:56.628Z,25.97
2018-03-16T07:15:38.063Z,25.80
2018-03-16T07:18:06.901Z,26.37
2018-03-16T07:20:35.834Z,27.10
2018-03-16T07:23:04.673Z,28.07
2018-03-16T07:25:33.734Z,27.43
2018-03-16T07:28:02.583Z,28.73
2018-03-16T07:30:32.528Z,29.50
2018-03-16T07:33:01.350Z,27.90
2018-03-16T07:35:30.206Z,31.70
2018-03-16T07:37:59.801Z,29.23
2018-03-16T07:40:29.454Z,30.63
2018-03-16T07:42:58.275Z,29.87
2018-03-16T07:45:32.706Z,29.87
2018-03-16T07:48:02.565Z,30.17
2018-03-16T07:50:31.424Z,29.60
2018-03-16T07:53:01.026Z,28.47
2018-03-16T07:55:30.635Z,29.20
2018-03-16T07:58:00.253Z,31.93
2018-03-16T08:00:29.882Z,29.70
2018-03-16T08:02:58.758Z,29.63
2018-03-16T08:05:28.355Z,30.00
2018-03-16T08:07:57.960Z,28.37
2018-03-16T08:10:27.558Z,26.70
2018-03-16T08:12:57.200Z,27.80
2018-03-16T08:15:26.011Z,25.90
2018-03-16T08:17:54.872Z,26.00
2018-03-16T08:20:23.712Z,26.40
2018-03-16T08:25:30.491Z,26.50
2018-03-16T08:27:59.382Z,25.13
2018-03-16T08:30:28.186Z,28.03
2018-03-16T08:32:57.802Z,26.53
2018-03-16T08:35:26.944Z,26.20
2018-03-16T08:37:55.812Z,25.07
2018-03-16T08:40:24.649Z,26.07
2018-03-16T08:42:53.510Z,25.33
2018-03-16T08:45:22.330Z,25.60
2018-03-16T08:47:51.165Z,25.70
2018-03-16T08:50:20.528Z,25.30
2018-03-16T08:52:49.365Z,24.70
2018-03-16T08:55:18.214Z,26.57
2018-03-16T08:57:47.842Z,24.77
2018-03-16T09:00:17.446Z,27.87
2018-03-16T09:02:46.297Z,24.80
2018-03-16T09:05:15.139Z,25.60
2018-03-16T09:07:43.969Z,23.20
2018-03-16T09:10:12.826Z,21.60
2018-03-16T09:12:41.710Z,24.53
2018-03-16T09:15:10.495Z,24.80
2018-03-16T09:17:39.339Z,23.63
2018-03-16T09:20:08.234Z,23.03
2018-03-16T09:22:37.092Z,23.17
2018-03-16T09:25:05.939Z,23.90
2018-03-16T09:27:35.533Z,22.60
2018-03-16T09:30:05.470Z,24.90
2018-03-16T09:32:35.078Z,24.90
2018-03-16T09:35:04.678Z,24.03
2018-03-16T09:37:34.439Z,22.57
2018-03-16T09:40:03.277Z,24.23
2018-03-16T09:42:32.902Z,26.03
2018-03-16T09:45:02.526Z,25.63
2018-03-16T09:47:31.467Z,26.17
2018-03-16T09:50:00.386Z,26.37
2018-03-16T09:52:30.031Z,26.77
2018-03-16T09:55:10.678Z,27.27
2018-03-16T09:57:39.742Z,27.53
2018-03-16T10:00:09.379Z,26.87
2018-03-16T10:02:38.193Z,27.87
2018-03-16T10:05:07.057Z,26.70
2018-03-16T10:07:36.666Z,26.73
2018-03-16T10:10:05.518Z,26.10
2018-03-16T10:12:35.109Z,26.20
2018-03-16T10:15:03.961Z,26.10
2018-03-16T10:17:32.816Z,26.27
2018-03-16T10:20:02.408Z,26.23
2018-03-16T10:22:31.254Z,26.10
2018-03-16T10:25:00.101Z,24.73
2018-03-16T10:27:29.718Z,23.93
2018-03-16T10:29:59.351Z,26.33
2018-03-16T10:32:31.010Z,27.93
2018-03-16T10:34:59.858Z,28.00
2018-03-16T10:37:29.475Z,27.10
2018-03-16T10:39:59.309Z,29.50
2018-03-16T10:42:28.162Z,29.43
2018-03-16T10:44:56.988Z,26.00
2018-03-16T10:47:25.843Z,27.07
2018-03-16T10:49:55.467Z,26.03
2018-03-16T10:52:25.078Z,24.77
2018-03-16T10:54:55.787Z,25.20
2018-03-16T10:57:25.394Z,24.40
2018-03-16T10:59:55.016Z,24.77
2018-03-16T11:02:24.644Z,23.90
2018-03-16T11:04:59.175Z,23.20
2018-03-16T11:07:43.425Z,22.73
2018-03-16T11:10:12.286Z,22.73
2018-03-16T11:12:41.895Z,21.60
2018-03-16T11:15:11.526Z,22.40
2018-03-16T11:17:40.374Z,21.80
2018-03-16T12:05:19.463Z,14.97
2018-03-16T12:07:48.306Z,15.43
2018-03-16T12:10:17.254Z,15.50
2018-03-16T12:12:46.858Z,18.17
2018-03-16T12:15:16.723Z,17.03
2018-03-16T12:17:46.092Z,15.37
2018-03-16T12:20:15.694Z,16.13
2018-03-16T12:22:45.322Z,14.70
2018-03-16T12:25:14.951Z,16.00
2018-03-16T12:27:43.792Z,14.53
2018-03-16T12:30:12.642Z,13.50
2018-03-16T12:32:41.490Z,14.30
2018-03-16T12:35:11.118Z,14.50
2018-03-16T12:37:39.985Z,12.57
2018-03-16T12:40:08.807Z,12.73
2018-03-16T12:42:37.658Z,12.70
2018-03-16T12:45:07.285Z,12.00
2018-03-16T12:47:36.903Z,12.40
2018-03-16T12:50:05.788Z,12.00
2018-03-16T12:52:35.381Z,12.30
2018-03-16T12:55:04.996Z,11.87
2018-03-16T12:57:34.277Z,11.73
2018-03-16T13:00:03.118Z,11.60
2018-03-16T13:02:31.989Z,11.77
2018-03-16T13:05:00.839Z,12.33
2018-03-16T13:07:30.436Z,11.70
2018-03-16T13:09:59.317Z,12.87
2018-03-16T13:12:28.139Z,12.10
2018-03-16T13:14:57.741Z,10.93
2018-03-16T13:17:27.406Z,10.13
2018-03-16T13:19:56.537Z,11.13
2018-03-16T13:22:25.358Z,10.87
2018-03-16T13:24:54.497Z,11.93
2018-03-16T13:27:24.110Z,12.17
2018-03-16T13:29:52.926Z,11.33
2018-03-16T13:32:21.788Z,13.20
2018-03-16T13:34:50.635Z,12.87
2018-03-16T13:37:19.482Z,14.23
2018-03-16T13:39:48.340Z,13.20
2018-03-16T13:42:17.575Z,12.87
2018-03-16T13:44:46.420Z,13.53
2018-03-16T13:47:16.074Z,14.03
2018-03-16T13:49:44.929Z,12.77
2018-03-16T13:52:14.550Z,13.13
2018-03-16T13:54:43.389Z,12.20
2018-03-16T13:57:12.251Z,14.30
2018-03-16T13:59:41.161Z,13.27
2018-03-16T14:02:10.018Z,14.43
2018-03-16T14:04:38.861Z,14.27
2018-03-16T14:07:08.986Z,12.40
2018-03-16T14:09:38.594Z,13.57
2018-03-16T14:12:08.202Z,13.10
2018-03-16T14:14:37.836Z,13.70
2018-03-16T14:17:06.687Z,13.93
2018-03-16T14:19:35.550Z,14.20
2018-03-16T14:22:04.404Z,13.80
2018-03-16T14:24:33.258Z,15.53
2018-03-16T14:27:02.872Z,16.13
2018-03-16T14:29:31.707Z,16.60
2018-03-16T14:32:00.550Z,14.60
2018-03-16T14:34:30.174Z,18.67
2018-03-16T14:36:59.032Z,18.23
2018-03-16T14:39:27.871Z,16.80
2018-03-16T14:41:56.730Z,15.87
2018-03-16T14:44:26.340Z,17.03
2018-03-16T14:46:55.178Z,17.03
2018-03-16T14:49:24.035Z,16.67
2018-03-16T14:51:52.879Z,17.53
2018-03-16T14:54:22.523Z,18.30
2018-03-16T14:56:51.362Z,19.20
2018-03-16T14:59:20.206Z,19.40
2018-03-16T15:01:49.082Z,21.47
2018-03-16T15:04:18.685Z,20.63
2018-03-16T15:06:51.522Z,18.70
2018-03-16T15:09:20.393Z,20.33
2018-03-16T15:11:49.260Z,20.23
2018-03-16T15:14:18.091Z,19.57
2018-03-16T15:16:46.928Z,19.83
2018-03-16T15:19:15.778Z,19.37
2018-03-16T15:21:45.721Z,21.40
2018-03-16T15:24:14.520Z,20.10
2018-03-16T15:26:44.118Z,20.10
2018-03-16T15:29:13.734Z,19.37
2018-03-16T15:31:42.617Z,21.03
2018-03-16T15:34:12.206Z,23.33
2018-03-16T15:36:41.838Z,23.23
2018-03-16T15:39:10.695Z,26.60
2018-03-16T15:41:39.594Z,22.50
2018-03-16T15:44:09.237Z,20.53
2018-03-16T15:46:38.097Z,21.20
2018-03-16T15:49:07.724Z,27.23
2018-03-16T15:51:36.580Z,22.30
2018-03-16T15:54:06.273Z,29.80
2018-03-16T15:56:35.122Z,24.70
2018-03-16T15:59:04.035Z,27.27
2018-03-16T16:01:32.909Z,23.13
2018-03-16T16:04:01.754Z,23.30
2018-03-16T16:06:31.379Z,24.23
2018-03-16T16:09:00.238Z,22.87
2018-03-16T16:11:29.083Z,46.00
2018-03-16T16:13:57.948Z,25.90
2018-03-16T16:16:26.810Z,31.57
2018-03-16T16:18:56.115Z,22.47
2018-03-16T16:21:25.775Z,26.03
2018-03-16T16:23:55.413Z,25.07
2018-03-16T16:26:24.264Z,24.33
2018-03-16T16:28:53.923Z,25.07
2018-03-16T16:31:22.747Z,23.07
2018-03-16T16:33:52.410Z,24.67
2018-03-16T16:36:21.258Z,31.47
2018-03-16T16:38:50.878Z,19.00
2018-03-16T16:41:21.214Z,21.23
2018-03-16T16:43:50.091Z,21.00
2018-03-16T16:46:18.943Z,23.30
2018-03-16T16:48:48.564Z,20.70
2018-03-16T16:51:17.675Z,21.10
2018-03-16T16:53:46.515Z,20.00
2018-03-16T16:56:15.359Z,25.47
2018-03-16T16:58:44.217Z,22.93
2018-03-16T17:01:13.843Z,25.80
2018-03-16T17:03:42.686Z,21.00
2018-03-16T17:06:11.581Z,21.10
2018-03-16T17:08:40.423Z,19.53
2018-03-16T17:11:09.267Z,24.70
2018-03-16T17:13:38.236Z,20.40
2018-03-16T17:16:07.092Z,22.73
2018-03-16T17:18:35.955Z,22.50
2018-03-16T17:21:05.578Z,20.83
2018-03-16T17:23:34.470Z,19.20
2018-03-16T17:26:04.087Z,19.47
2018-03-16T17:28:32.947Z,18.90
2018-03-16T17:31:02.587Z,18.17
2018-03-16T17:33:31.643Z,18.53
2018-03-16T17:36:01.255Z,19.70
2018-03-16T17:38:30.863Z,17.70
2018-03-16T17:41:00.503Z,17.80
2018-03-16T17:43:29.662Z,18.93
2018-03-16T17:45:59.288Z,18.13
2018-03-16T17:48:28.910Z,20.47
2018-03-16T17:50:57.836Z,19.93
2018-03-16T17:53:26.679Z,20.17
2018-03-16T17:55:55.542Z,19.10
2018-03-16T17:58:24.398Z,21.37
2018-03-16T18:00:53.238Z,20.33
2018-03-16T18:03:22.889Z,19.43
2018-03-16T18:05:51.822Z,20.70
2018-03-16T18:08:21.460Z,17.83
2018-03-16T18:10:51.080Z,20.50
2018-03-16T18:13:19.952Z,20.03
2018-03-16T18:15:48.859Z,19.43
2018-03-16T18:18:17.709Z,20.20
2018-03-16T18:20:48.093Z,18.50
2018-03-16T18:23:16.958Z,17.10
2018-03-16T18:25:46.645Z,17.37
2018-03-16T18:28:16.290Z,19.10
2018-03-16T18:30:45.907Z,19.80
2018-03-16T18:33:14.761Z,18.93
2018-03-16T18:35:43.615Z,18.60
2018-03-16T18:38:12.544Z,20.10
2018-03-16T18:40:41.407Z,19.63
2018-03-16T18:43:10.258Z,16.93
2018-03-16T18:45:39.163Z,16.87
2018-03-16T18:48:07.980Z,17.20
2018-03-16T18:50:36.838Z,16.63
2018-03-16T18:53:05.700Z,17.37
2018-03-16T18:55:35.320Z,17.07
2018-03-16T18:58:04.959Z,14.97
2018-03-16T19:00:33.836Z,17.20
2018-03-16T19:03:03.040Z,15.73
2018-03-16T19:05:32.647Z,15.07
2018-03-16T19:08:01.495Z,16.20
2018-03-16T19:10:30.334Z,16.97
2018-03-16T19:12:59.172Z,16.77
2018-03-16T19:15:28.794Z,17.10
2018-03-16T19:17:57.798Z,15.20
2018-03-16T19:20:27.390Z,16.83
2018-03-16T19:22:57.004Z,17.93
2018-03-16T19:25:26.652Z,17.43
2018-03-16T19:27:56.222Z,17.37
2018-03-16T19:30:25.088Z,16.40
2018-03-16T19:32:54.282Z,17.03
2018-03-16T19:35:24.146Z,17.67
2018-03-16T19:37:53.817Z,18.07
2018-03-16T19:40:22.608Z,16.93
2018-03-16T19:42:51.476Z,16.83
2018-03-16T19:45:20.322Z,18.20
2018-03-16T19:47:49.960Z,25.10
2018-03-16T19:50:18.815Z,58.73
2018-03-16T19:52:47.678Z,52.97
2018-03-16T19:55:16.547Z,26.13
2018-03-16T19:57:45.418Z,19.17
2018-03-16T20:00:14.291Z,17.47
2018-03-16T20:02:43.906Z,18.07
2018-03-16T20:05:12.756Z,17.10
2018-03-16T20:07:41.627Z,16.90
2018-03-16T20:10:11.225Z,17.87
2018-03-16T20:12:40.066Z,19.30
2018-03-16T20:15:09.706Z,17.50
2018-03-16T20:17:38.567Z,18.57
2018-03-16T20:20:07.438Z,19.20
2018-03-16T20:22:36.269Z,17.90
2018-03-16T20:25:05.134Z,18.83
2018-03-16T20:27:34.751Z,19.03
2018-03-16T20:30:03.620Z,18.57
2018-03-16T20:32:32.493Z,17.80
2018-03-16T20:35:02.176Z,19.27
2018-03-16T20:37:32.216Z,18.77
2018-03-16T20:40:01.840Z,18.80
2018-03-16T20:42:31.468Z,19.00
2018-03-16T20:45:00.330Z,16.03
2018-03-16T20:47:29.949Z,21.57
2018-03-16T20:49:59.675Z,18.60
2018-03-16T20:52:29.321Z,17.40
2018-03-16T20:54:58.151Z,16.83
2018-03-16T20:57:27.801Z,19.07
2018-03-16T20:59:56.655Z,21.00
2018-03-16T21:02:25.514Z,17.70
2018-03-16T21:04:54.343Z,18.23
2018-03-16T21:07:23.256Z,18.00
2018-03-16T21:09:52.116Z,18.50
2018-03-16T21:12:21.726Z,19.33
2018-03-16T21:14:50.589Z,16.97
2018-03-16T21:17:20.320Z,17.60
2018-03-16T21:19:49.145Z,16.00
2018-03-16T21:22:17.984Z,16.83
2018-03-16T21:24:47.625Z,17.23
2018-03-16T21:27:16.455Z,15.20
2018-03-16T21:29:45.295Z,16.93
2018-03-16T21:32:14.167Z,17.73
2018-03-16T21:34:43.019Z,16.40
2018-03-16T21:37:12.628Z,17.40
2018-03-16T21:39:41.487Z,15.60
2018-03-16T21:42:10.318Z,15.57
2018-03-16T21:44:39.944Z,16.13
2018-03-16T21:47:08.794Z,15.87
2018-03-16T21:49:37.617Z,15.90
2018-03-16T21:52:06.483Z,16.20
2018-03-16T21:54:36.123Z,15.40
2018-03-16T21:57:04.986Z,14.60
2018-03-16T21:59:34.618Z,15.70
2018-03-16T22:02:03.485Z,15.23
2018-03-16T22:04:33.138Z,16.27
2018-03-16T22:07:02.695Z,16.30
2018-03-16T22:09:32.339Z,15.63
2018-03-16T22:12:01.202Z,14.87
2018-03-16T22:14:30.804Z,14.40
2018-03-16T22:17:00.429Z,15.10
2018-03-16T22:19:29.269Z,13.73
2018-03-16T22:21:58.125Z,13.90
2018-03-16T22:24:26.988Z,15.70
2018-03-16T22:26:56.610Z,13.80
2018-03-16T22:29:25.456Z,13.60
2018-03-16T22:31:55.077Z,15.07
2018-03-16T22:34:25.397Z,14.33
2018-03-16T22:36:55.004Z,14.27
2018-03-16T22:39:24.626Z,13.80
2018-03-16T22:41:53.490Z,42.20
2018-03-16T22:44:22.338Z,16.57
2018-03-16T22:46:51.167Z,13.83
2018-03-16T22:49:20.791Z,14.37
2018-03-16T22:51:50.402Z,15.87
2018-03-16T22:54:20.011Z,15.83
2018-03-16T22:56:48.900Z,14.73
2018-03-16T22:59:17.708Z,15.77
2018-03-16T23:01:46.547Z,14.40
2018-03-16T23:04:15.391Z,14.30
2018-03-16T23:06:44.242Z,14.23
2018-03-16T23:09:13.859Z,13.30
2018-03-16T23:11:43.495Z,12.83
2018-03-16T23:14:12.344Z,13.40
2018-03-16T23:16:41.958Z,12.63
2018-03-16T23:19:11.594Z,12.53
2018-03-16T23:21:40.493Z,14.10
2018-03-16T23:24:09.343Z,12.20
2018-03-16T23:26:39.282Z,11.63
2018-03-16T23:29:08.126Z,12.03
2018-03-16T23:31:37.774Z,11.23
2018-03-16T23:34:07.720Z,11.50
2018-03-16T23:36:37.383Z,11.23
2018-03-16T23:39:06.186Z,12.47
2018-03-16T23:41:35.835Z,13.03
2018-03-16T23:44:04.667Z,12.40
2018-03-16T23:46:33.561Z,13.53
2018-03-16T23:49:02.404Z,14.07
2018-03-16T23:51:31.291Z,12.77
2018-03-16T23:54:00.139Z,12.23
2018-03-16T23:56:28.967Z,12.10
2018-03-16T23:58:57.813Z,11.40
